Time;durP1;ratioP1;P1;durP2;ratioP2;P2;SDS_P1;SDS_P2;PMS_P1;PMS_P2;Temp;Humidity;BMP_temperature;BMP_pressure;BME280_temperature;BME280_humidity;BME280_pressure;Samples;Min_cycle;Max_cycle;Signal;HPM_P1;HPM_P2
2022/10/15 00:01:38;;;;;;;23.73;21.13;;;13.30;1.00;;;;;;6336657;27;20610;-55
2022/10/15 00:04:41;;;;;;;25.57;20.87;;;13.30;1.00;;;;;;6335074;27;20342;-54
2022/10/15 00:07:43;;;;;;;22.17;19.87;;;13.30;1.00;;;;;;6319856;27;20232;-53
2022/10/15 00:10:46;;;;;;;24.73;21.63;;;13.30;1.00;;;;;;6312797;28;20247;-53
2022/10/15 00:13:52;;;;;;;23.77;20.20;;;13.30;1.00;;;;;;6312895;28;20244;-53
2022/10/15 00:16:55;;;;;;;25.77;22.37;;;13.40;1.00;;;;;;6312601;28;20247;-53
2022/10/15 00:19:58;;;;;;;22.77;20.37;;;13.30;1.00;;;;;;6312910;28;20247;-53
2022/10/15 00:23:00;;;;;;;23.67;21.20;;;13.30;1.00;;;;;;6330740;27;20683;-54
2022/10/15 00:26:05;;;;;;;26.50;22.60;;;13.30;1.00;;;;;;6328782;27;20474;-54
2022/10/15 00:29:10;;;;;;;24.37;21.87;;;13.30;1.00;;;;;;6338171;27;20224;-53
2022/10/15 00:32:13;;;;;;;26.10;22.23;;;13.30;1.00;;;;;;6333361;27;20694;-54
2022/10/15 00:35:16;;;;;;;24.33;21.73;;;13.30;1.00;;;;;;6335446;27;20732;-54
2022/10/15 00:38:19;;;;;;;23.23;20.67;;;13.20;1.00;;;;;;6326788;27;20752;-54
2022/10/15 00:41:24;;;;;;;25.20;22.10;;;13.20;1.00;;;;;;6330245;27;20268;-52
2022/10/15 00:44:53;;;;;;;28.50;23.37;;;13.20;1.00;;;;;;6312264;28;20228;-54
2022/10/15 00:47:56;;;;;;;22.93;20.53;;;13.20;1.00;;;;;;6306334;28;20835;-54
2022/10/15 00:51:02;;;;;;;24.10;21.53;;;13.20;1.00;;;;;;6312224;28;20232;-52
2022/10/15 00:54:06;;;;;;;25.07;21.73;;;13.20;1.00;;;;;;6311642;28;20239;-54
2022/10/15 00:57:10;;;;;;;24.60;22.07;;;13.20;1.00;;;;;;6327215;27;20228;-53
2022/10/15 01:00:17;;;;;;;26.50;22.20;;;13.20;1.00;;;;;;6335262;27;20235;-53
2022/10/15 01:03:20;;;;;;;25.73;23.03;;;13.20;1.00;;;;;;6330983;27;20243;-54
2022/10/15 01:06:24;;;;;;;25.97;23.20;;;13.10;1.00;;;;;;6335431;27;20700;-53
2022/10/15 01:09:27;;;;;;;25.27;22.23;;;13.10;1.00;;;;;;6336448;28;20235;-53
2022/10/15 01:12:43;;;;;;;23.60;21.17;;;13.10;1.00;;;;;;6327620;27;20235;-54
2022/10/15 01:15:54;;;;;;;24.07;21.57;;;13.10;1.00;;;;;;6334642;27;20244;-54
2022/10/15 01:19:01;;;;;;;23.87;21.37;;;13.10;1.00;;;;;;6323617;27;20228;-53
2022/10/15 01:22:08;;;;;;;24.30;21.67;;;13.10;1.00;;;;;;6322057;27;20622;-51
2022/10/15 01:25:24;;;;;;;21.97;19.53;;;13.10;1.00;;;;;;6309714;28;20486;-53
2022/10/15 01:28:40;;;;;;;23.37;20.33;;;13.10;1.00;;;;;;6336954;27;20652;-51
2022/10/15 01:31:52;;;;;;;22.30;19.53;;;13.10;1.00;;;;;;6304409;28;20266;-55
2022/10/15 01:34:58;;;;;;;25.17;22.30;;;13.10;1.00;;;;;;6331337;27;20625;-52
2022/10/15 01:38:14;;;;;;;24.80;22.20;;;13.10;1.00;;;;;;6332107;27;20271;-54
2022/10/15 01:41:22;;;;;;;22.07;19.97;;;13.10;1.00;;;;;;6333772;28;20232;-53
2022/10/15 01:44:31;;;;;;;21.33;19.20;;;13.20;1.00;;;;;;6334371;28;20605;-53
2022/10/15 01:47:41;;;;;;;25.37;21.50;;;13.20;1.00;;;;;;6320840;28;20224;-52
2022/10/15 01:50:46;;;;;;;25.20;22.47;;;13.20;1.00;;;;;;6331993;27;20245;-54
2022/10/15 01:53:50;;;;;;;23.10;19.97;;;13.20;1.00;;;;;;6330899;28;20247;-54
2022/10/15 01:56:55;;;;;;;26.03;22.63;;;13.20;1.00;;;;;;6327047;27;20224;-54
2022/10/15 02:00:00;;;;;;;26.47;22.33;;;13.20;1.00;;;;;;6324298;27;20240;-53
2022/10/15 02:03:04;;;;;;;26.40;23.30;;;13.30;1.00;;;;;;6318694;27;20263;-54
2022/10/15 02:06:13;;;;;;;27.73;22.53;;;13.30;1.00;;;;;;6333081;28;20240;-53
2022/10/15 02:09:24;;;;;;;25.80;22.97;;;13.20;1.00;;;;;;6322446;28;20225;-52
2022/10/15 02:12:46;;;;;;;25.67;22.23;;;13.30;1.00;;;;;;6317132;28;20244;-53
2022/10/15 02:15:58;;;;;;;24.40;21.70;;;13.30;1.00;;;;;;6308498;28;20225;-52
2022/10/15 02:19:08;;;;;;;23.27;20.87;;;13.30;1.00;;;;;;6307639;28;20635;-54
2022/10/15 02:22:15;;;;;;;29.87;22.97;;;13.30;1.00;;;;;;6306508;28;20391;-54
2022/10/15 02:25:22;;;;;;;22.77;20.47;;;13.30;1.00;;;;;;6307689;28;20269;-53
2022/10/15 02:28:27;;;;;;;22.33;20.03;;;13.30;1.00;;;;;;6334106;27;20232;-52
2022/10/15 02:31:33;;;;;;;25.67;20.83;;;13.30;1.00;;;;;;6333596;27;20231;-53
2022/10/15 02:34:38;;;;;;;24.67;22.00;;;13.40;1.00;;;;;;6332420;27;20602;-53
2022/10/15 02:37:46;;;;;;;24.00;21.40;;;13.30;1.00;;;;;;6314938;27;20232;-51
2022/10/15 02:40:49;;;;;;;23.13;20.70;;;13.30;1.00;;;;;;6327879;28;20784;-54
2022/10/15 02:43:52;;;;;;;27.47;21.33;;;13.30;1.00;;;;;;6326549;27;20228;-53
2022/10/15 02:46:57;;;;;;;24.03;20.57;;;13.30;1.00;;;;;;6331764;27;20345;-53
2022/10/15 02:50:01;;;;;;;23.40;20.93;;;13.30;1.00;;;;;;6328579;27;20733;-54
2022/10/15 02:53:04;;;;;;;23.50;21.17;;;13.30;1.00;;;;;;6325333;27;21322;-55
2022/10/15 02:56:07;;;;;;;26.80;23.47;;;13.30;1.00;;;;;;6313660;27;20233;-54
2022/10/15 02:59:10;;;;;;;24.87;21.10;;;13.30;1.00;;;;;;6336695;27;20414;-56
2022/10/15 03:02:13;;;;;;;23.63;20.27;;;13.30;1.00;;;;;;6333054;28;20242;-52
2022/10/15 03:05:22;;;;;;;22.70;20.23;;;13.30;1.00;;;;;;6325573;27;20239;-53
2022/10/15 03:08:25;;;;;;;20.37;18.37;;;13.30;1.00;;;;;;6333108;27;20730;-53
2022/10/15 03:11:28;;;;;;;27.50;20.27;;;13.30;1.00;;;;;;6332665;27;20236;-53
2022/10/15 03:14:30;;;;;;;25.10;20.97;;;13.30;1.00;;;;;;6317156;28;20232;-54
2022/10/15 03:17:33;;;;;;;19.87;17.77;;;13.30;1.00;;;;;;6307690;28;20224;-53
2022/10/15 03:20:38;;;;;;;20.10;17.97;;;13.30;1.00;;;;;;6313998;28;20239;-54
2022/10/15 03:23:40;;;;;;;24.87;21.37;;;13.30;1.00;;;;;;6338050;27;20235;-52
2022/10/15 03:26:43;;;;;;;25.03;22.00;;;13.30;1.00;;;;;;6343067;27;20250;-53
2022/10/15 03:29:46;;;;;;;22.57;20.13;;;13.30;1.00;;;;;;6328977;28;20752;-53
2022/10/15 03:32:49;;;;;;;23.20;20.27;;;13.30;1.00;;;;;;6311493;27;20239;-53
2022/10/15 03:35:53;;;;;;;21.70;19.50;;;13.30;1.00;;;;;;6327249;27;20232;-53
2022/10/15 03:38:56;;;;;;;21.10;18.87;;;13.20;1.00;;;;;;6338027;27;20244;-53
2022/10/15 03:41:59;;;;;;;18.80;16.97;;;13.20;1.00;;;;;;6335349;27;20240;-53
2022/10/15 03:45:02;;;;;;;19.70;17.70;;;13.20;1.00;;;;;;6332258;27;20719;-54
2022/10/15 03:48:05;;;;;;;25.07;21.00;;;13.20;1.00;;;;;;6336010;27;20374;-53
2022/10/15 03:51:09;;;;;;;25.03;21.57;;;13.10;1.00;;;;;;6332275;27;20843;-54
2022/10/15 03:54:12;;;;;;;22.53;20.23;;;13.10;1.00;;;;;;6332304;27;20642;-54
2022/10/15 03:57:15;;;;;;;22.97;20.67;;;13.10;1.00;;;;;;6336742;27;20228;-53
2022/10/15 04:00:18;;;;;;;19.10;17.10;;;13.10;1.00;;;;;;6333196;27;20232;-53
2022/10/15 04:03:21;;;;;;;19.17;17.27;;;13.10;1.00;;;;;;6332047;27;20239;-54
2022/10/15 04:06:25;;;;;;;20.57;18.43;;;13.10;1.00;;;;;;6330184;27;20650;-53
2022/10/15 04:09:28;;;;;;;20.20;18.10;;;13.10;1.00;;;;;;6333594;27;20743;-52
2022/10/15 04:12:30;;;;;;;22.93;20.53;;;13.10;1.00;;;;;;6331956;28;20239;-53
2022/10/15 04:15:33;;;;;;;25.17;22.17;;;13.10;1.00;;;;;;6331494;27;20333;-53
2022/10/15 04:18:36;;;;;;;21.63;19.53;;;13.20;1.00;;;;;;6334301;27;20228;-52
2022/10/15 04:21:40;;;;;;;21.00;18.87;;;13.20;1.00;;;;;;6326334;28;20244;-54
2022/10/15 04:24:43;;;;;;;19.57;17.70;;;13.20;1.00;;;;;;6326778;28;20228;-53
2022/10/15 04:27:46;;;;;;;20.53;18.43;;;13.20;1.00;;;;;;6336576;27;20237;-54
2022/10/15 04:30:49;;;;;;;25.23;21.83;;;13.20;1.00;;;;;;6336228;27;20719;-52
2022/10/15 04:33:51;;;;;;;26.03;22.50;;;13.10;1.00;;;;;;6332880;27;20243;-53
2022/10/15 04:36:56;;;;;;;24.37;21.87;;;13.20;1.00;;;;;;6331821;27;20240;-53
2022/10/15 04:39:58;;;;;;;23.93;21.30;;;13.10;1.00;;;;;;6334003;27;20242;-53
2022/10/15 04:43:01;;;;;;;25.27;21.93;;;13.20;1.00;;;;;;6334186;27;20609;-54
2022/10/15 04:46:06;;;;;;;26.73;21.80;;;13.20;1.00;;;;;;6337322;27;20719;-53
2022/10/15 04:49:09;;;;;;;23.53;21.13;;;13.20;1.00;;;;;;6329057;27;20227;-53
2022/10/15 04:52:13;;;;;;;24.27;21.43;;;13.20;1.00;;;;;;6337062;27;20232;-54
2022/10/15 04:55:16;;;;;;;24.83;20.37;;;13.20;1.00;;;;;;6337495;27;20254;-52
2022/10/15 04:58:19;;;;;;;22.47;20.10;;;13.20;1.00;;;;;;6335872;27;20235;-54
2022/10/15 05:01:23;;;;;;;27.17;21.77;;;13.20;1.00;;;;;;6334533;27;20232;-54
2022/10/15 05:04:26;;;;;;;27.30;22.97;;;13.20;1.00;;;;;;6335227;27;20235;-53
2022/10/15 05:07:30;;;;;;;22.97;20.47;;;13.20;1.00;;;;;;6330854;27;20224;-53
2022/10/15 05:10:33;;;;;;;25.80;21.13;;;13.20;1.00;;;;;;6335226;27;20262;-54
2022/10/15 05:13:36;;;;;;;23.60;21.10;;;13.20;1.00;;;;;;6335826;27;20735;-53
2022/10/15 05:16:39;;;;;;;24.93;20.20;;;13.20;1.00;;;;;;6333424;27;20238;-54
2022/10/15 05:19:42;;;;;;;25.10;21.03;;;13.10;1.00;;;;;;6337003;27;20240;-54
2022/10/15 05:22:46;;;;;;;22.40;20.10;;;13.10;1.00;;;;;;6332498;27;20239;-53
2022/10/15 05:25:49;;;;;;;22.47;20.13;;;13.10;1.00;;;;;;6317413;28;20227;-53
2022/10/15 05:28:57;;;;;;;23.10;20.57;;;13.10;1.00;;;;;;6325601;27;20789;-54
2022/10/15 05:31:59;;;;;;;24.17;20.87;;;13.10;1.00;;;;;;6333991;27;20418;-54
2022/10/15 05:35:02;;;;;;;27.47;20.63;;;13.10;1.00;;;;;;6330456;27;20228;-53
2022/10/15 05:38:07;;;;;;;21.03;18.83;;;13.10;1.00;;;;;;6335645;27;20231;-54
2022/10/15 05:41:10;;;;;;;20.83;18.63;;;13.20;1.00;;;;;;6333054;27;20236;-52
2022/10/15 05:44:12;;;;;;;22.20;19.90;;;13.20;1.00;;;;;;6324741;27;20232;-53
2022/10/15 05:47:15;;;;;;;20.60;18.50;;;13.20;1.00;;;;;;6339756;27;20750;-53
2022/10/15 05:50:18;;;;;;;21.17;18.97;;;13.20;1.00;;;;;;6333224;27;20227;-55
2022/10/15 05:53:22;;;;;;;20.27;18.27;;;13.20;1.00;;;;;;6319192;27;20690;-53
2022/10/15 05:56:26;;;;;;;24.83;20.37;;;13.20;1.00;;;;;;6328981;27;20255;-53
2022/10/15 05:59:29;;;;;;;20.63;18.43;;;13.20;1.00;;;;;;6322682;27;20404;-54
2022/10/15 06:02:32;;;;;;;20.90;18.80;;;13.30;1.00;;;;;;6335253;27;20236;-54
2022/10/15 06:05:34;;;;;;;21.90;19.57;;;13.30;1.00;;;;;;6322040;27;20221;-53
2022/10/15 06:08:39;;;;;;;22.07;19.20;;;13.20;1.00;;;;;;6336787;27;20237;-53
2022/10/15 06:11:41;;;;;;;19.93;17.90;;;13.30;1.00;;;;;;6333736;27;20236;-54
2022/10/15 06:14:44;;;;;;;21.07;18.87;;;13.30;1.00;;;;;;6331825;27;20240;-53
2022/10/15 06:17:47;;;;;;;18.73;16.77;;;13.40;1.00;;;;;;6332280;28;20239;-53
2022/10/15 06:20:51;;;;;;;20.53;18.03;;;13.40;1.00;;;;;;6337309;27;20242;-52
2022/10/15 06:23:55;;;;;;;20.13;17.40;;;13.40;1.00;;;;;;6318897;27;20241;-52
2022/10/15 06:26:59;;;;;;;19.90;17.90;;;13.40;1.00;;;;;;6323861;27;20232;-54
2022/10/15 06:30:02;;;;;;;20.73;18.50;;;13.40;1.00;;;;;;6329021;27;20477;-53
2022/10/15 06:33:05;;;;;;;17.93;16.27;;;13.40;1.00;;;;;;6328546;27;20232;-54
2022/10/15 06:36:09;;;;;;;14.77;13.47;;;13.50;1.00;;;;;;6329024;27;20887;-54
2022/10/15 06:39:14;;;;;;;17.10;15.43;;;13.50;1.00;;;;;;6317393;27;20256;-54
2022/10/15 06:42:16;;;;;;;20.33;16.67;;;13.60;1.00;;;;;;6325667;27;20232;-54
2022/10/15 06:45:20;;;;;;;18.47;16.60;;;13.70;1.00;;;;;;6330257;27;20393;-53
2022/10/15 06:48:23;;;;;;;18.03;16.27;;;13.60;1.00;;;;;;6321787;27;20736;-51
2022/10/15 06:51:26;;;;;;;16.33;14.83;;;13.70;1.00;;;;;;6334047;27;20227;-52
2022/10/15 06:54:30;;;;;;;20.07;17.93;;;13.70;1.00;;;;;;6336213;27;20401;-53
2022/10/15 06:57:33;;;;;;;17.17;15.57;;;13.70;1.00;;;;;;6339540;27;20881;-54
2022/10/15 07:00:36;;;;;;;19.23;17.17;;;13.80;1.00;;;;;;6334378;27;20646;-53
2022/10/15 07:03:39;;;;;;;19.43;16.83;;;13.70;1.00;;;;;;6330874;27;20470;-53
2022/10/15 07:06:42;;;;;;;19.23;17.23;;;13.80;1.00;;;;;;6339879;27;20228;-54
2022/10/15 07:09:46;;;;;;;18.47;16.73;;;13.80;1.00;;;;;;6335883;27;20484;-62
2022/10/15 07:12:49;;;;;;;18.57;16.70;;;13.80;1.00;;;;;;6335710;27;20236;-53
2022/10/15 07:15:54;;;;;;;18.57;16.90;;;14.00;1.00;;;;;;6333093;28;20763;-54
2022/10/15 07:18:57;;;;;;;17.40;15.60;;;14.10;1.00;;;;;;6342082;27;20616;-53
2022/10/15 07:22:00;;;;;;;17.73;16.07;;;14.30;1.00;;;;;;6333874;27;20748;-53
2022/10/15 07:25:05;;;;;;;17.20;15.60;;;14.40;1.00;;;;;;6337405;27;20231;-55
2022/10/15 07:28:07;;;;;;;16.57;14.80;;;14.40;1.00;;;;;;6331602;27;20236;-52
2022/10/15 07:31:10;;;;;;;17.90;16.30;;;14.50;1.00;;;;;;6328888;27;20239;-54
2022/10/15 07:34:13;;;;;;;16.77;15.13;;;14.50;1.00;;;;;;6334106;27;20232;-54
2022/10/15 07:37:16;;;;;;;15.97;14.57;;;14.60;1.00;;;;;;6332497;27;20687;-54
2022/10/15 07:40:21;;;;;;;16.43;14.83;;;14.70;1.00;;;;;;6333214;27;20228;-53
2022/10/15 07:43:23;;;;;;;15.53;14.10;;;14.80;1.00;;;;;;6336768;27;20608;-53
2022/10/15 07:46:26;;;;;;;15.20;13.80;;;14.80;1.00;;;;;;6338043;27;20236;-54
2022/10/15 07:49:29;;;;;;;14.17;12.73;;;14.90;1.00;;;;;;6335685;27;20232;-53
2022/10/15 07:52:32;;;;;;;15.27;13.87;;;15.00;1.00;;;;;;6331939;28;20224;-55
2022/10/15 07:56:02;;;;;;;14.80;13.40;;;15.00;1.00;;;;;;6335781;27;20656;-53
2022/10/15 07:59:29;;;;;;;16.40;14.70;;;15.10;1.00;;;;;;6336780;27;20200;-54
2022/10/15 08:02:56;;;;;;;14.57;13.00;;;15.20;1.00;;;;;;6364544;27;20613;-54
2022/10/15 08:06:23;;;;;;;14.37;12.87;;;15.20;1.00;;;;;;6332830;27;20215;-54
2022/10/15 08:09:26;;;;;;;14.70;13.27;;;15.30;1.00;;;;;;6318589;27;20944;-54
2022/10/15 08:12:31;;;;;;;18.87;16.03;;;15.40;1.00;;;;;;6375992;27;20607;-54
2022/10/15 08:15:33;;;;;;;16.87;14.80;;;15.50;1.00;;;;;;6364844;27;20302;-53
2022/10/15 08:18:37;;;;;;;14.33;12.93;;;15.50;1.00;;;;;;6353427;27;20240;-54
2022/10/15 08:21:39;;;;;;;14.60;13.37;;;15.70;1.00;;;;;;6359643;27;20234;-53
2022/10/15 08:24:46;;;;;;;15.50;13.97;;;15.80;1.00;;;;;;6364873;27;20303;-53
2022/10/15 08:27:53;;;;;;;13.57;12.27;;;15.90;1.00;;;;;;6369838;27;20602;-53
2022/10/15 08:30:57;;;;;;;12.33;11.23;;;16.10;1.00;;;;;;6369795;27;20223;-54
2022/10/15 08:34:07;;;;;;;12.37;11.30;;;16.30;1.00;;;;;;6347528;27;20725;-53
2022/10/15 08:37:10;;;;;;;11.50;10.60;;;16.40;1.00;;;;;;6326598;27;20227;-53
2022/10/15 08:40:15;;;;;;;10.97;10.17;;;16.50;1.00;;;;;;6335300;27;20388;-54
2022/10/15 08:43:24;;;;;;;11.20;10.30;;;16.50;1.00;;;;;;6336837;27;20716;-54
2022/10/15 08:46:35;;;;;;;10.57;9.70;;;16.60;1.00;;;;;;6324478;27;20270;-52
2022/10/15 08:49:44;;;;;;;10.70;9.80;;;16.70;1.00;;;;;;6324109;27;20231;-53
2022/10/15 08:52:49;;;;;;;10.73;9.93;;;16.70;1.00;;;;;;6322815;27;20434;-53
2022/10/15 08:55:57;;;;;;;11.93;10.90;;;16.80;1.00;;;;;;6353124;27;20238;-55
2022/10/15 08:59:08;;;;;;;12.00;10.90;;;16.80;1.00;;;;;;6352010;27;20230;-53
2022/10/15 09:02:18;;;;;;;10.57;9.60;;;16.80;1.00;;;;;;6350065;27;20246;-53
2022/10/15 09:05:31;;;;;;;11.13;10.00;;;16.80;1.00;;;;;;6348377;27;20808;-54
2022/10/15 09:08:41;;;;;;;12.17;9.93;;;16.90;1.00;;;;;;6354702;27;20506;-53
2022/10/15 09:11:57;;;;;;;11.87;11.00;;;17.00;1.00;;;;;;6344730;27;20293;-53
2022/10/15 09:15:04;;;;;;;12.07;11.10;;;17.00;1.00;;;;;;6346418;27;20231;-53
2022/10/15 09:18:17;;;;;;;14.00;11.43;;;17.00;1.00;;;;;;6356419;27;20292;-53
2022/10/15 09:21:21;;;;;;;11.77;10.87;;;17.10;1.00;;;;;;6353110;27;20227;-53
2022/10/15 09:24:28;;;;;;;12.47;11.33;;;17.20;1.00;;;;;;6357014;27;20363;-53
2022/10/15 09:27:34;;;;;;;13.37;12.17;;;17.20;1.00;;;;;;6354439;27;20476;-53
2022/10/15 09:30:46;;;;;;;11.37;10.27;;;17.30;1.00;;;;;;6349845;27;20692;-55
2022/10/15 09:33:53;;;;;;;11.10;10.33;;;17.30;1.00;;;;;;6345574;27;20243;-54
2022/10/15 09:37:00;;;;;;;14.57;13.27;;;17.40;1.00;;;;;;6345869;27;20245;-54
2022/10/15 09:40:22;;;;;;;12.67;11.63;;;17.50;1.00;;;;;;6344807;27;20231;-55
2022/10/15 09:43:32;;;;;;;12.10;11.00;;;17.50;1.00;;;;;;6349922;27;20314;-53
2022/10/15 09:46:43;;;;;;;10.17;9.47;;;17.50;1.00;;;;;;6341297;27;20715;-54
2022/10/15 09:49:46;;;;;;;10.70;9.67;;;17.60;1.00;;;;;;6342588;27;20516;-53
2022/10/15 09:53:03;;;;;;;10.70;9.77;;;17.90;1.00;;;;;;6344542;27;20250;-53
2022/10/15 09:56:13;;;;;;;10.03;9.33;;;18.10;1.00;;;;;;6337309;27;20696;-54
2022/10/15 09:59:17;;;;;;;10.10;9.10;;;18.40;1.00;;;;;;6345001;27;20234;-53
2022/10/15 10:02:22;;;;;;;10.00;9.20;;;18.30;1.00;;;;;;6351900;27;20239;-53
2022/10/15 10:05:29;;;;;;;9.00;8.30;;;18.30;1.00;;;;;;6381794;27;20817;-54
2022/10/15 10:08:37;;;;;;;8.20;7.70;;;18.50;1.00;;;;;;6381528;27;20230;-54
2022/10/15 10:11:49;;;;;;;7.40;7.00;;;18.40;1.00;;;;;;6380900;27;21121;-53
2022/10/15 10:14:55;;;;;;;8.73;8.10;;;18.40;1.00;;;;;;6372388;27;20231;-54
2022/10/15 10:18:00;;;;;;;11.23;10.40;;;18.50;1.00;;;;;;6381600;27;20232;-53
2022/10/15 10:21:05;;;;;;;9.10;8.30;;;18.40;1.00;;;;;;6383003;27;20324;-54
2022/10/15 10:24:27;;;;;;;9.53;8.93;;;18.30;1.00;;;;;;6379004;27;20234;-55
2022/10/15 10:27:30;;;;;;;7.93;7.30;;;18.30;1.00;;;;;;6376248;27;20227;-54
2022/10/15 10:30:36;;;;;;;8.20;7.70;;;18.30;1.00;;;;;;6382692;27;20241;-54
2022/10/15 10:33:46;;;;;;;7.07;6.73;;;18.40;1.00;;;;;;6369315;27;20673;-56
2022/10/15 10:36:51;;;;;;;6.33;6.03;;;18.30;1.00;;;;;;6382489;27;20245;-54
2022/10/15 10:39:56;;;;;;;7.43;6.93;;;18.30;1.00;;;;;;6377520;27;20234;-53
2022/10/15 10:43:23;;;;;;;7.40;7.00;;;18.20;1.00;;;;;;6378734;27;20372;-53
2022/10/15 10:46:26;;;;;;;6.37;6.07;;;18.30;1.00;;;;;;6351641;27;20257;-53
2022/10/15 10:49:36;;;;;;;6.83;6.43;;;18.30;1.00;;;;;;6357659;27;20241;-53
2022/10/15 10:52:39;;;;;;;6.67;6.37;;;18.30;1.00;;;;;;6356307;27;20242;-53
2022/10/15 10:55:45;;;;;;;8.13;7.53;;;18.40;1.00;;;;;;6355815;27;20234;-53
2022/10/15 10:58:53;;;;;;;6.80;6.30;;;18.60;1.00;;;;;;6356383;27;20706;-55
2022/10/15 11:01:56;;;;;;;6.87;6.47;;;18.60;1.00;;;;;;6358018;27;20249;-55
2022/10/15 11:05:00;;;;;;;5.70;5.50;;;18.60;1.00;;;;;;6364928;27;20261;-55
2022/10/15 11:08:12;;;;;;;7.03;6.63;;;18.70;1.00;;;;;;6364220;27;20234;-54
2022/10/15 11:11:21;;;;;;;6.67;6.37;;;18.70;1.00;;;;;;6357251;27;20364;-55
2022/10/15 11:14:32;;;;;;;7.07;6.67;;;18.80;1.00;;;;;;6356355;27;20269;-54
2022/10/15 11:17:47;;;;;;;8.17;7.60;;;18.80;1.00;;;;;;6361369;27;20706;-54
2022/10/15 11:21:02;;;;;;;7.27;6.87;;;18.70;1.00;;;;;;6358537;27;20238;-54
2022/10/15 11:24:14;;;;;;;6.97;6.67;;;18.70;1.00;;;;;;6356153;27;20324;-54
2022/10/15 11:27:32;;;;;;;6.93;6.53;;;18.80;1.00;;;;;;6358103;27;20347;-54
2022/10/15 11:30:48;;;;;;;5.43;5.23;;;18.80;1.00;;;;;;6351169;27;20625;-53
2022/10/15 11:34:02;;;;;;;6.60;6.27;;;18.80;1.00;;;;;;6360154;27;20249;-54
2022/10/15 11:37:20;;;;;;;6.67;6.37;;;18.80;1.00;;;;;;6354382;27;20234;-54
2022/10/15 11:40:33;;;;;;;5.80;5.50;;;18.80;1.00;;;;;;6353377;27;20231;-54
2022/10/15 11:43:51;;;;;;;6.27;5.97;;;18.80;1.00;;;;;;6349882;27;20239;-54
2022/10/15 11:47:09;;;;;;;6.43;5.93;;;18.90;1.00;;;;;;6355503;27;20242;-60
2022/10/15 11:50:25;;;;;;;5.70;5.40;;;18.90;1.00;;;;;;6361393;27;20234;-54
2022/10/15 11:53:49;;;;;;;6.17;5.87;;;19.00;1.00;;;;;;6359765;27;20234;-54
2022/10/15 11:56:53;;;;;;;6.37;6.07;;;19.10;1.00;;;;;;6349460;27;21053;-54
2022/10/15 12:00:01;;;;;;;6.90;6.50;;;19.10;1.00;;;;;;6353473;27;20237;-54
2022/10/15 12:03:12;;;;;;;6.20;5.87;;;19.10;1.00;;;;;;6353150;27;20238;-62
2022/10/15 12:06:18;;;;;;;6.33;6.00;;;19.00;1.00;;;;;;6359923;27;20755;-58
2022/10/15 12:09:28;;;;;;;5.40;5.20;;;19.00;1.00;;;;;;6368157;27;20241;-55
2022/10/15 12:12:39;;;;;;;5.50;5.17;;;19.10;1.00;;;;;;6378028;27;20258;-55
2022/10/15 12:15:47;;;;;;;5.13;4.93;;;19.10;1.00;;;;;;6387063;27;20368;-53
2022/10/15 12:18:55;;;;;;;4.83;4.63;;;19.10;1.00;;;;;;6383711;27;20231;-54
2022/10/15 12:22:08;;;;;;;5.30;4.90;;;19.00;1.00;;;;;;6380969;27;20233;-54
2022/10/15 12:25:45;;;;;;;5.13;4.93;;;19.00;1.00;;;;;;6386075;27;20377;-53
2022/10/15 12:28:50;;;;;;;5.80;5.40;;;19.10;1.00;;;;;;6386145;27;20231;-54
2022/10/15 12:31:55;;;;;;;5.17;4.97;;;19.00;1.00;;;;;;6373870;27;20742;-54
2022/10/15 12:35:01;;;;;;;5.63;5.43;;;19.00;1.00;;;;;;6352333;27;20388;-55
2022/10/15 12:38:20;;;;;;;5.40;5.10;;;18.90;1.00;;;;;;6357269;27;20375;-54
2022/10/15 12:41:35;;;;;;;5.43;5.20;;;18.90;1.00;;;;;;6348413;27;20544;-53
2022/10/15 12:44:38;;;;;;;5.23;5.03;;;18.90;1.00;;;;;;6350488;27;20242;-55
2022/10/15 12:47:48;;;;;;;5.00;4.80;;;18.80;1.00;;;;;;6357602;27;20234;-54
2022/10/15 12:51:41;;;;;;;4.80;4.60;;;18.80;1.00;;;;;;6345813;27;20613;-55
2022/10/15 12:54:45;;;;;;;5.00;4.83;;;18.90;1.00;;;;;;6349556;27;20445;-55
2022/10/15 12:57:54;;;;;;;4.90;4.80;;;18.90;1.00;;;;;;6351098;27;20535;-53
2022/10/15 13:00:57;;;;;;;4.50;4.30;;;18.90;1.00;;;;;;6355582;27;20238;-55
2022/10/15 13:04:00;;;;;;;5.27;4.80;;;18.90;1.00;;;;;;6356712;27;20952;-53
2022/10/15 13:07:04;;;;;;;4.47;4.37;;;18.90;1.00;;;;;;6351591;27;20238;-55
2022/10/15 13:10:20;;;;;;;5.17;4.87;;;18.90;1.00;;;;;;6354174;27;20234;-55
2022/10/15 13:13:27;;;;;;;4.07;3.97;;;18.90;1.00;;;;;;6355397;27;20888;-54
2022/10/15 13:16:31;;;;;;;5.07;4.77;;;18.90;1.00;;;;;;6368323;27;20738;-54
2022/10/15 13:19:38;;;;;;;4.20;4.10;;;19.00;1.00;;;;;;6383758;27;20231;-54
2022/10/15 13:22:41;;;;;;;4.27;3.90;;;19.00;1.00;;;;;;6383135;27;20703;-54
2022/10/15 13:25:44;;;;;;;4.03;3.83;;;19.00;1.00;;;;;;6381741;27;20261;-54
2022/10/15 13:28:49;;;;;;;3.63;3.43;;;18.90;1.00;;;;;;6384036;27;20874;-55
2022/10/15 13:31:55;;;;;;;3.87;3.77;;;18.80;1.00;;;;;;6384485;27;20237;-53
2022/10/15 13:34:59;;;;;;;3.97;3.77;;;18.90;1.00;;;;;;6381818;27;20613;-54
2022/10/15 13:38:04;;;;;;;3.33;3.30;;;18.90;1.00;;;;;;6377445;27;20214;-53
2022/10/15 13:41:08;;;;;;;5.67;5.37;;;18.90;1.00;;;;;;6380537;27;20218;-54
2022/10/15 13:44:22;;;;;;;4.37;4.20;;;18.90;1.00;;;;;;6380714;27;20249;-54
2022/10/15 13:47:29;;;;;;;3.87;3.77;;;18.90;1.00;;;;;;6384983;27;20230;-54
2022/10/15 13:50:34;;;;;;;4.20;3.90;;;18.80;1.00;;;;;;6381713;27;20277;-54
2022/10/15 13:53:41;;;;;;;3.93;3.73;;;18.60;1.00;;;;;;6383714;27;20235;-54
2022/10/15 13:56:50;;;;;;;4.10;4.00;;;18.60;1.00;;;;;;6383585;27;20235;-54
2022/10/15 13:59:54;;;;;;;4.83;4.57;;;18.50;1.00;;;;;;6383387;27;20242;-54
2022/10/15 14:03:14;;;;;;;4.90;4.70;;;18.40;1.00;;;;;;6384600;27;20737;-54
2022/10/15 14:06:19;;;;;;;4.40;4.20;;;18.40;1.00;;;;;;6378081;27;20254;-54
2022/10/15 14:09:26;;;;;;;5.30;5.03;;;18.40;1.00;;;;;;6383335;27;20219;-55
2022/10/15 14:12:28;;;;;;;4.50;4.40;;;18.40;1.00;;;;;;6384003;27;20687;-55
2022/10/15 14:15:48;;;;;;;5.53;5.13;;;18.60;1.00;;;;;;6382071;27;20230;-53
2022/10/15 14:18:53;;;;;;;4.87;4.70;;;18.70;1.00;;;;;;6378217;27;20404;-55
2022/10/15 14:21:56;;;;;;;4.53;4.33;;;18.70;1.00;;;;;;6376679;27;20281;-54
2022/10/15 14:25:00;;;;;;;3.87;3.77;;;18.60;1.00;;;;;;6382714;27;20238;-54
2022/10/15 14:28:03;;;;;;;4.10;3.90;;;18.60;1.00;;;;;;6379584;27;20351;-54
2022/10/15 14:31:08;;;;;;;4.20;4.00;;;18.40;1.00;;;;;;6383408;27;20242;-54
2022/10/15 14:34:34;;;;;;;4.90;4.70;;;18.40;1.00;;;;;;6374044;27;20233;-54
2022/10/15 14:37:40;;;;;;;4.40;4.20;;;18.30;1.00;;;;;;6342428;27;20392;-54
2022/10/15 14:40:56;;;;;;;6.10;4.47;;;18.30;1.00;;;;;;6346959;27;20269;-55
2022/10/15 14:44:05;;;;;;;4.07;3.83;;;18.30;1.00;;;;;;6349357;27;20813;-54
2022/10/15 14:47:18;;;;;;;3.60;3.43;;;18.40;1.00;;;;;;6346073;27;20690;-54
2022/10/15 14:50:25;;;;;;;3.40;3.20;;;18.40;1.00;;;;;;6322680;27;20416;-53
2022/10/15 14:53:31;;;;;;;11.40;8.10;;;18.40;1.00;;;;;;6350621;27;20697;-54
2022/10/15 14:56:35;;;;;;;4.73;4.53;;;18.50;1.00;;;;;;6351131;27;20745;-55
2022/10/15 14:59:38;;;;;;;4.37;4.17;;;18.40;1.00;;;;;;6347643;27;20226;-54
2022/10/15 15:02:42;;;;;;;6.73;5.83;;;18.30;1.00;;;;;;6349242;27;20629;-54
2022/10/15 15:05:47;;;;;;;4.83;4.67;;;18.20;1.00;;;;;;6341672;27;20258;-55
2022/10/15 15:08:50;;;;;;;4.80;4.70;;;18.00;1.00;;;;;;6350580;27;20234;-54
2022/10/15 15:11:52;;;;;;;5.50;5.20;;;17.90;1.00;;;;;;6348496;27;20345;-54
2022/10/15 15:14:55;;;;;;;4.90;4.70;;;17.90;1.00;;;;;;6344660;27;20816;-54
2022/10/15 15:17:59;;;;;;;6.47;5.90;;;17.80;1.00;;;;;;6349867;27;20242;-55
2022/10/15 15:21:06;;;;;;;4.93;4.63;;;17.80;1.00;;;;;;6349828;27;20972;-54
2022/10/15 15:24:09;;;;;;;8.13;7.53;;;17.70;1.00;;;;;;6345486;27;20246;-54
2022/10/15 15:27:22;;;;;;;5.90;4.97;;;17.70;1.00;;;;;;6345963;27;20355;-54
2022/10/15 15:30:27;;;;;;;4.27;4.07;;;17.70;1.00;;;;;;6349870;27;20237;-53
2022/10/15 15:33:32;;;;;;;4.47;4.17;;;17.60;1.00;;;;;;6350400;27;20279;-53
2022/10/15 15:36:35;;;;;;;4.30;4.00;;;17.70;1.00;;;;;;6350941;27;20425;-54
2022/10/15 15:39:38;;;;;;;4.40;4.20;;;17.60;1.00;;;;;;6353718;27;20480;-55
2022/10/15 15:42:41;;;;;;;3.87;3.70;;;17.50;1.00;;;;;;6347492;27;20231;-54
2022/10/15 15:45:45;;;;;;;3.50;3.40;;;17.40;1.00;;;;;;6343479;27;20620;-53
2022/10/15 15:48:49;;;;;;;4.63;4.33;;;17.30;1.00;;;;;;6355305;27;20243;-54
2022/10/15 15:51:52;;;;;;;4.23;4.13;;;17.20;1.00;;;;;;6349296;27;21055;-60
2022/10/15 15:54:55;;;;;;;4.13;4.03;;;17.20;1.00;;;;;;6354861;27;20708;-53
2022/10/15 15:57:58;;;;;;;3.47;3.33;;;17.10;1.00;;;;;;6352388;27;20249;-54
2022/10/15 16:01:01;;;;;;;4.00;3.80;;;17.00;1.00;;;;;;6349659;27;20269;-54
2022/10/15 16:04:06;;;;;;;4.77;4.43;;;17.00;1.00;;;;;;6380312;27;20227;-54
2022/10/15 16:07:09;;;;;;;6.30;5.53;;;16.90;1.00;;;;;;6382787;27;20620;-54
2022/10/15 16:10:15;;;;;;;5.73;5.33;;;16.80;1.00;;;;;;6385496;27;20241;-53